sensor_id;sensor_type;location;lat;lon;timestamp;pressure;altitude;pressure_sealevel;temperature;humidity
75192;BME280;63771;52.580;9.734;2022-12-07T00:01:30;101035.16;;;3.11;95.93
75192;BME280;63771;52.580;9.734;2022-12-07T00:03:58;101033.53;;;3.11;96.03
75192;BME280;63771;52.580;9.734;2022-12-07T00:06:29;101023.44;;;3.11;96.15
75192;BME280;63771;52.580;9.734;2022-12-07T00:08:54;101027.06;;;3.13;96.12
75192;BME280;63771;52.580;9.734;2022-12-07T00:11:21;101023.09;;;3.16;96.38
75192;BME280;63771;52.580;9.734;2022-12-07T00:13:52;101023.25;;;3.17;96.37
75192;BME280;63771;52.580;9.734;2022-12-07T00:16:19;101014.78;;;3.17;96.23
75192;BME280;63771;52.580;9.734;2022-12-07T00:18:45;101014.06;;;3.18;96.29
75192;BME280;63771;52.580;9.734;2022-12-07T00:21:13;101011.00;;;3.20;96.32
75192;BME280;63771;52.580;9.734;2022-12-07T00:23:40;101002.00;;;3.22;96.09
75192;BME280;63771;52.580;9.734;2022-12-07T00:26:15;100997.84;;;3.23;96.26
75192;BME280;63771;52.580;9.734;2022-12-07T00:28:44;100997.16;;;3.24;96.13
75192;BME280;63771;52.580;9.734;2022-12-07T00:31:12;100994.06;;;3.26;96.15
75192;BME280;63771;52.580;9.734;2022-12-07T00:33:37;100996.75;;;3.28;96.50
75192;BME280;63771;52.580;9.734;2022-12-07T00:36:08;100995.31;;;3.30;96.46
75192;BME280;63771;52.580;9.734;2022-12-07T00:38:35;100988.81;;;3.32;96.58
75192;BME280;63771;52.580;9.734;2022-12-07T00:41:04;100980.56;;;3.26;96.65
75192;BME280;63771;52.580;9.734;2022-12-07T00:43:30;100990.44;;;3.31;96.58
75192;BME280;63771;52.580;9.734;2022-12-07T00:45:56;100983.78;;;3.32;96.68
75192;BME280;63771;52.580;9.734;2022-12-07T00:48:22;100985.19;;;3.37;96.37
75192;BME280;63771;52.580;9.734;2022-12-07T00:50:48;100975.69;;;3.34;96.52
75192;BME280;63771;52.580;9.734;2022-12-07T00:53:14;100987.53;;;3.43;96.29
75192;BME280;63771;52.580;9.734;2022-12-07T00:55:40;100981.06;;;3.45;96.41
75192;BME280;63771;52.580;9.734;2022-12-07T00:58:06;100968.97;;;3.42;96.58
75192;BME280;63771;52.580;9.734;2022-12-07T01:00:32;100953.16;;;3.36;96.64
75192;BME280;63771;52.580;9.734;2022-12-07T01:02:58;100963.56;;;3.46;96.33
75192;BME280;63771;52.580;9.734;2022-12-07T01:05:24;100966.25;;;3.48;96.58
75192;BME280;63771;52.580;9.734;2022-12-07T01:07:49;100967.13;;;3.48;96.45
75192;BME280;63771;52.580;9.734;2022-12-07T01:10:14;100961.56;;;3.51;96.42
75192;BME280;63771;52.580;9.734;2022-12-07T01:12:40;100964.25;;;3.52;96.05
75192;BME280;63771;52.580;9.734;2022-12-07T01:15:06;100962.78;;;3.54;96.15
75192;BME280;63771;52.580;9.734;2022-12-07T01:17:32;100961.34;;;3.56;96.20
75192;BME280;63771;52.580;9.734;2022-12-07T01:19:58;100956.31;;;3.56;96.31
75192;BME280;63771;52.580;9.734;2022-12-07T01:22:23;100957.88;;;3.63;96.09
75192;BME280;63771;52.580;9.734;2022-12-07T01:24:48;100957.34;;;3.65;95.91
75192;BME280;63771;52.580;9.734;2022-12-07T01:27:14;100951.16;;;3.71;95.42
75192;BME280;63771;52.580;9.734;2022-12-07T01:29:40;100957.69;;;3.69;95.15
75192;BME280;63771;52.580;9.734;2022-12-07T01:32:05;100955.16;;;3.69;95.44
75192;BME280;63771;52.580;9.734;2022-12-07T01:34:31;100947.25;;;3.65;95.26
75192;BME280;63771;52.580;9.734;2022-12-07T01:36:56;100948.84;;;3.65;95.18
75192;BME280;63771;52.580;9.734;2022-12-07T01:39:22;100946.00;;;3.62;95.15
75192;BME280;63771;52.580;9.734;2022-12-07T01:41:47;100937.19;;;3.58;94.92
75192;BME280;63771;52.580;9.734;2022-12-07T01:46:49;100944.59;;;3.50;95.40
75192;BME280;63771;52.580;9.734;2022-12-07T01:52:18;100939.78;;;3.44;95.28
75192;BME280;63771;52.580;9.734;2022-12-07T01:54:47;100936.75;;;3.39;95.12
75192;BME280;63771;52.580;9.734;2022-12-07T01:57:14;100938.75;;;3.35;95.15
75192;BME280;63771;52.580;9.734;2022-12-07T01:59:41;100937.34;;;3.30;95.21
75192;BME280;63771;52.580;9.734;2022-12-07T02:02:13;100946.69;;;3.31;95.35
75192;BME280;63771;52.580;9.734;2022-12-07T02:04:42;100940.19;;;3.33;95.09
75192;BME280;63771;52.580;9.734;2022-12-07T02:07:07;100939.97;;;3.38;95.14
75192;BME280;63771;52.580;9.734;2022-12-07T02:09:33;100942.13;;;3.43;94.68
75192;BME280;63771;52.580;9.734;2022-12-07T02:11:58;100938.72;;;3.42;94.85
75192;BME280;63771;52.580;9.734;2022-12-07T02:14:23;100936.03;;;3.40;94.74
75192;BME280;63771;52.580;9.734;2022-12-07T02:28:04;100925.44;;;3.29;93.71
75192;BME280;63771;52.580;9.734;2022-12-07T02:30:34;100931.19;;;3.28;94.17
75192;BME280;63771;52.580;9.734;2022-12-07T02:35:39;100927.81;;;3.20;94.23
75192;BME280;63771;52.580;9.734;2022-12-07T02:38:28;100921.88;;;3.20;94.21
75192;BME280;63771;52.580;9.734;2022-12-07T02:41:09;100929.47;;;3.12;94.16
75192;BME280;63771;52.580;9.734;2022-12-07T02:43:43;100930.03;;;3.10;94.53
75192;BME280;63771;52.580;9.734;2022-12-07T02:46:14;100929.66;;;3.07;94.32
75192;BME280;63771;52.580;9.734;2022-12-07T02:48:41;100928.75;;;3.06;94.37
75192;BME280;63771;52.580;9.734;2022-12-07T02:51:08;100926.09;;;3.05;94.27
75192;BME280;63771;52.580;9.734;2022-12-07T02:53:39;100925.72;;;3.02;94.73
75192;BME280;63771;52.580;9.734;2022-12-07T02:59:15;100921.78;;;2.97;94.52
75192;BME280;63771;52.580;9.734;2022-12-07T03:07:09;100914.03;;;2.95;94.46
75192;BME280;63771;52.580;9.734;2022-12-07T03:10:07;100908.28;;;2.96;94.29
75192;BME280;63771;52.580;9.734;2022-12-07T03:12:46;100913.69;;;2.99;94.36
75192;BME280;63771;52.580;9.734;2022-12-07T03:15:29;100906.44;;;3.02;94.57
75192;BME280;63771;52.580;9.734;2022-12-07T03:17:57;100906.97;;;3.07;94.54
75192;BME280;63771;52.580;9.734;2022-12-07T03:20:26;100908.59;;;3.06;94.57
75192;BME280;63771;52.580;9.734;2022-12-07T03:22:54;100905.03;;;3.04;94.81
75192;BME280;63771;52.580;9.734;2022-12-07T03:25:20;100899.63;;;3.08;94.72
75192;BME280;63771;52.580;9.734;2022-12-07T03:27:57;100901.56;;;3.11;94.51
75192;BME280;63771;52.580;9.734;2022-12-07T03:30:28;100899.22;;;3.12;94.42
75192;BME280;63771;52.580;9.734;2022-12-07T03:33:10;100892.38;;;3.11;94.50
75192;BME280;63771;52.580;9.734;2022-12-07T03:35:40;100889.53;;;3.08;94.33
75192;BME280;63771;52.580;9.734;2022-12-07T03:38:19;100890.22;;;3.07;93.94
75192;BME280;63771;52.580;9.734;2022-12-07T03:40:54;100897.44;;;3.11;93.99
75192;BME280;63771;52.580;9.734;2022-12-07T03:43:23;100896.38;;;3.02;94.25
75192;BME280;63771;52.580;9.734;2022-12-07T03:46:04;100901.09;;;2.99;94.25
75192;BME280;63771;52.580;9.734;2022-12-07T03:48:40;100897.13;;;2.94;93.85
75192;BME280;63771;52.580;9.734;2022-12-07T03:53:51;100899.31;;;2.84;94.12
75192;BME280;63771;52.580;9.734;2022-12-07T03:56:20;100904.56;;;2.78;94.37
75192;BME280;63771;52.580;9.734;2022-12-07T03:58:47;100911.41;;;2.72;94.67
75192;BME280;63771;52.580;9.734;2022-12-07T04:01:12;100922.38;;;2.73;94.68
75192;BME280;63771;52.580;9.734;2022-12-07T04:03:38;100925.28;;;2.69;94.61
75192;BME280;63771;52.580;9.734;2022-12-07T04:06:04;100915.91;;;2.68;94.63
75192;BME280;63771;52.580;9.734;2022-12-07T04:08:29;100911.41;;;2.65;94.67
75192;BME280;63771;52.580;9.734;2022-12-07T04:10:55;100922.03;;;2.63;94.68
75192;BME280;63771;52.580;9.734;2022-12-07T04:13:20;100925.63;;;2.65;94.69
75192;BME280;63771;52.580;9.734;2022-12-07T04:15:45;100925.47;;;2.63;94.66
75192;BME280;63771;52.580;9.734;2022-12-07T04:18:11;100927.09;;;2.63;94.51
75192;BME280;63771;52.580;9.734;2022-12-07T04:20:36;100925.63;;;2.65;94.56
75192;BME280;63771;52.580;9.734;2022-12-07T04:23:01;100925.63;;;2.65;94.76
75192;BME280;63771;52.580;9.734;2022-12-07T04:25:27;100924.22;;;2.67;94.54
75192;BME280;63771;52.580;9.734;2022-12-07T04:27:52;100920.06;;;2.67;94.60
75192;BME280;63771;52.580;9.734;2022-12-07T04:30:18;100922.75;;;2.69;94.67
75192;BME280;63771;52.580;9.734;2022-12-07T04:32:43;100932.47;;;2.73;94.69
75192;BME280;63771;52.580;9.734;2022-12-07T04:35:08;100917.53;;;2.74;94.11
75192;BME280;63771;52.580;9.734;2022-12-07T04:37:34;100917.53;;;2.74;94.29
75192;BME280;63771;52.580;9.734;2022-12-07T04:39:59;100915.53;;;2.79;94.13
75192;BME280;63771;52.580;9.734;2022-12-07T04:42:24;100913.19;;;2.80;94.20
75192;BME280;63771;52.580;9.734;2022-12-07T04:44:50;100916.78;;;2.82;94.13
75192;BME280;63771;52.580;9.734;2022-12-07T04:47:16;100913.53;;;2.83;94.21
75192;BME280;63771;52.580;9.734;2022-12-07T04:49:41;100910.84;;;2.82;93.78
75192;BME280;63771;52.580;9.734;2022-12-07T04:52:07;100912.66;;;2.83;93.89
75192;BME280;63771;52.580;9.734;2022-12-07T04:54:32;100904.00;;;2.81;93.90
75192;BME280;63771;52.580;9.734;2022-12-07T04:56:57;100914.78;;;2.87;93.79
75192;BME280;63771;52.580;9.734;2022-12-07T04:59:22;100912.97;;;2.86;94.07
75192;BME280;63771;52.580;9.734;2022-12-07T05:01:48;100902.91;;;2.86;94.03
75192;BME280;63771;52.580;9.734;2022-12-07T05:04:13;100902.91;;;2.86;94.21
75192;BME280;63771;52.580;9.734;2022-12-07T05:06:38;100894.81;;;2.81;94.09
75192;BME280;63771;52.580;9.734;2022-12-07T05:09:04;100890.72;;;2.82;94.26
75192;BME280;63771;52.580;9.734;2022-12-07T05:11:30;100905.09;;;2.83;94.33
75192;BME280;63771;52.580;9.734;2022-12-07T05:16:31;100907.06;;;2.85;94.40
75192;BME280;63771;52.580;9.734;2022-12-07T05:18:57;100905.44;;;2.86;94.23
75192;BME280;63771;52.580;9.734;2022-12-07T05:21:23;100900.06;;;2.83;94.41
75192;BME280;63771;52.580;9.734;2022-12-07T05:23:48;100896.97;;;2.85;94.30
75192;BME280;63771;52.580;9.734;2022-12-07T05:26:14;100899.31;;;2.84;94.23
75192;BME280;63771;52.580;9.734;2022-12-07T05:28:40;100906.72;;;2.82;94.38
75192;BME280;63771;52.580;9.734;2022-12-07T05:31:05;100912.44;;;2.81;94.48
75192;BME280;63771;52.580;9.734;2022-12-07T05:33:30;100914.06;;;2.81;94.40
75192;BME280;63771;52.580;9.734;2022-12-07T05:35:55;100908.69;;;2.85;94.27
75192;BME280;63771;52.580;9.734;2022-12-07T05:38:21;100911.75;;;2.82;94.53
75192;BME280;63771;52.580;9.734;2022-12-07T05:40:46;100908.16;;;2.80;94.50
75192;BME280;63771;52.580;9.734;2022-12-07T05:43:11;100912.44;;;2.88;94.06
75192;BME280;63771;52.580;9.734;2022-12-07T05:45:37;100914.59;;;2.85;94.35
75192;BME280;63771;52.580;9.734;2022-12-07T05:48:02;100911.56;;;2.81;94.48
75192;BME280;63771;52.580;9.734;2022-12-07T05:50:28;100882.44;;;2.69;94.44
75192;BME280;63771;52.580;9.734;2022-12-07T05:52:53;100899.88;;;2.74;94.26
75192;BME280;63771;52.580;9.734;2022-12-07T05:55:19;100887.66;;;2.70;94.23
75192;BME280;63771;52.580;9.734;2022-12-07T05:57:44;100888.91;;;2.74;94.04
75192;BME280;63771;52.580;9.734;2022-12-07T06:00:30;100901.16;;;2.71;93.82
75192;BME280;63771;52.580;9.734;2022-12-07T06:02:55;100890.38;;;2.65;94.10
75192;BME280;63771;52.580;9.734;2022-12-07T06:05:20;100894.50;;;2.64;94.14
75192;BME280;63771;52.580;9.734;2022-12-07T06:07:46;100896.88;;;2.63;94.10
75192;BME280;63771;52.580;9.734;2022-12-07T06:10:11;100884.44;;;2.64;94.39
75192;BME280;63771;52.580;9.734;2022-12-07T06:12:36;100892.56;;;2.61;94.22
75192;BME280;63771;52.580;9.734;2022-12-07T06:15:05;100894.84;;;2.74;95.38
75192;BME280;63771;52.580;9.734;2022-12-07T06:17:30;100904.03;;;2.74;93.69
75192;BME280;63771;52.580;9.734;2022-12-07T06:19:56;100888.19;;;2.75;93.70
75192;BME280;63771;52.580;9.734;2022-12-07T06:22:21;100893.59;;;2.78;93.45
75192;BME280;63771;52.580;9.734;2022-12-07T06:24:46;100898.25;;;2.75;93.36
75192;BME280;63771;52.580;9.734;2022-12-07T06:27:12;100899.88;;;2.74;93.20
75192;BME280;63771;52.580;9.734;2022-12-07T06:29:38;100893.59;;;2.71;93.48
75192;BME280;63771;52.580;9.734;2022-12-07T06:32:03;100898.47;;;2.69;93.33
75192;BME280;63771;52.580;9.734;2022-12-07T06:34:28;100901.00;;;2.62;93.21
75192;BME280;63771;52.580;9.734;2022-12-07T06:36:54;100896.88;;;2.63;93.76
75192;BME280;63771;52.580;9.734;2022-12-07T06:39:27;100890.94;;;2.55;93.58
75192;BME280;63771;52.580;9.734;2022-12-07T06:41:52;100906.94;;;2.55;93.55
75192;BME280;63771;52.580;9.734;2022-12-07T06:44:19;100904.59;;;2.50;93.78
75192;BME280;63771;52.580;9.734;2022-12-07T06:46:45;100898.34;;;2.46;93.84
75192;BME280;63771;52.580;9.734;2022-12-07T06:49:10;100906.25;;;2.42;93.92
75192;BME280;63771;52.580;9.734;2022-12-07T06:51:35;100907.31;;;2.37;93.90
75192;BME280;63771;52.580;9.734;2022-12-07T06:54:03;100912.00;;;2.34;93.73
75192;BME280;63771;52.580;9.734;2022-12-07T06:56:29;100905.34;;;2.27;94.03
75192;BME280;63771;52.580;9.734;2022-12-07T06:58:54;100910.38;;;2.27;93.98
75192;BME280;63771;52.580;9.734;2022-12-07T07:01:20;100915.41;;;2.27;94.20
75192;BME280;63771;52.580;9.734;2022-12-07T07:03:46;100920.44;;;2.27;94.18
75192;BME280;63771;52.580;9.734;2022-12-07T07:06:12;100916.88;;;2.25;93.83
75192;BME280;63771;52.580;9.734;2022-12-07T07:08:38;100917.56;;;2.24;93.97
75192;BME280;63771;52.580;9.734;2022-12-07T07:11:04;100919.19;;;2.24;94.32
75192;BME280;63771;52.580;9.734;2022-12-07T07:13:30;100920.63;;;2.22;94.10
75192;BME280;63771;52.580;9.734;2022-12-07T07:15:56;100919.19;;;2.24;94.19
75192;BME280;63771;52.580;9.734;2022-12-07T07:18:21;100923.34;;;2.30;94.23
75192;BME280;63771;52.580;9.734;2022-12-07T07:20:47;100924.03;;;2.29;93.82
75192;BME280;63771;52.580;9.734;2022-12-07T07:23:12;100922.44;;;2.30;94.40
75192;BME280;63771;52.580;9.734;2022-12-07T07:25:38;100930.91;;;2.30;93.86
75192;BME280;63771;52.580;9.734;2022-12-07T07:28:04;100928.91;;;2.28;94.25
75192;BME280;63771;52.580;9.734;2022-12-07T07:30:29;100939.13;;;2.29;94.07
75192;BME280;63771;52.580;9.734;2022-12-07T07:33:02;100933.56;;;2.32;94.25
75192;BME280;63771;52.580;9.734;2022-12-07T07:35:29;100929.44;;;2.32;93.73
75192;BME280;63771;52.580;9.734;2022-12-07T07:37:55;100936.25;;;2.33;94.00
75192;BME280;63771;52.580;9.734;2022-12-07T07:40:20;100937.16;;;2.34;94.02
75192;BME280;63771;52.580;9.734;2022-12-07T07:42:53;100948.88;;;2.41;93.85
75192;BME280;63771;52.580;9.734;2022-12-07T07:45:22;100944.34;;;2.38;94.19
75192;BME280;63771;52.580;9.734;2022-12-07T07:47:48;100945.97;;;2.38;93.83
75192;BME280;63771;52.580;9.734;2022-12-07T07:50:14;100954.44;;;2.38;94.16
75192;BME280;63771;52.580;9.734;2022-12-07T07:52:41;100954.44;;;2.38;94.31
75192;BME280;63771;52.580;9.734;2022-12-07T07:55:07;100964.50;;;2.38;94.20
75192;BME280;63771;52.580;9.734;2022-12-07T07:57:34;100962.72;;;2.37;94.49
75192;BME280;63771;52.580;9.734;2022-12-07T08:00:00;100960.53;;;2.40;94.21
75192;BME280;63771;52.580;9.734;2022-12-07T08:02:26;100956.41;;;2.33;94.38
75192;BME280;63771;52.580;9.734;2022-12-07T08:04:51;100960.03;;;2.35;94.68
75192;BME280;63771;52.580;9.734;2022-12-07T08:07:16;100961.63;;;2.35;94.69
75192;BME280;63771;52.580;9.734;2022-12-07T08:09:42;100956.06;;;2.38;94.89
75192;BME280;63771;52.580;9.734;2022-12-07T08:12:07;100950.13;;;2.37;94.77
75192;BME280;63771;52.580;9.734;2022-12-07T08:14:33;100944.03;;;2.35;94.76
75192;BME280;63771;52.580;9.734;2022-12-07T08:16:59;100937.53;;;2.37;94.68
75192;BME280;63771;52.580;9.734;2022-12-07T08:19:25;100938.44;;;2.38;94.74
75192;BME280;63771;52.580;9.734;2022-12-07T08:21:51;100940.38;;;2.40;94.98
75192;BME280;63771;52.580;9.734;2022-12-07T08:24:16;100937.53;;;2.37;94.91
75192;BME280;63771;52.580;9.734;2022-12-07T08:26:42;100939.69;;;2.41;94.80
75192;BME280;63771;52.580;9.734;2022-12-07T08:29:07;100936.81;;;2.38;95.06
75192;BME280;63771;52.580;9.734;2022-12-07T08:31:33;100938.97;;;2.42;94.82
75192;BME280;63771;52.580;9.734;2022-12-07T08:33:59;100931.41;;;2.42;94.89
75192;BME280;63771;52.580;9.734;2022-12-07T08:36:24;100942.38;;;2.50;94.78
75192;BME280;63771;52.580;9.734;2022-12-07T08:38:50;100937.88;;;2.47;94.52
75192;BME280;63771;52.580;9.734;2022-12-07T08:41:15;100932.13;;;2.48;94.57
75192;BME280;63771;52.580;9.734;2022-12-07T08:43:41;100946.72;;;2.51;94.54
75192;BME280;63771;52.580;9.734;2022-12-07T08:46:10;100947.78;;;2.53;94.65
75192;BME280;63771;52.580;9.734;2022-12-07T08:48:41;100949.03;;;2.56;94.70
75192;BME280;63771;52.580;9.734;2022-12-07T08:51:08;100946.34;;;2.62;94.60
75192;BME280;63771;52.580;9.734;2022-12-07T08:53:35;100957.84;;;2.67;94.71
75192;BME280;63771;52.580;9.734;2022-12-07T08:56:02;100946.66;;;2.65;94.26
75192;BME280;63771;52.580;9.734;2022-12-07T08:58:28;100945.06;;;2.73;93.84
75192;BME280;63771;52.580;9.734;2022-12-07T09:00:53;100950.81;;;2.79;93.68
75192;BME280;63771;52.580;9.734;2022-12-07T09:03:18;100947.56;;;2.80;93.54
75192;BME280;63771;52.580;9.734;2022-12-07T09:05:44;100946.13;;;2.82;94.02
75192;BME280;63771;52.580;9.734;2022-12-07T09:08:09;100941.78;;;2.88;93.31
75192;BME280;63771;52.580;9.734;2022-12-07T09:10:34;100945.03;;;2.80;93.17
75192;BME280;63771;52.580;9.734;2022-12-07T09:13:00;100948.25;;;2.86;92.99
75192;BME280;63771;52.580;9.734;2022-12-07T09:15:27;100942.69;;;2.88;92.19
75192;BME280;63771;52.580;9.734;2022-12-07T09:17:53;100955.81;;;2.93;92.46
75192;BME280;63771;52.580;9.734;2022-12-07T09:20:18;100953.28;;;2.86;92.29
75192;BME280;63771;52.580;9.734;2022-12-07T09:22:43;100957.09;;;2.82;92.86
75192;BME280;63771;52.580;9.734;2022-12-07T09:25:08;100960.50;;;2.83;92.25
75192;BME280;63771;52.580;9.734;2022-12-07T09:27:34;100961.25;;;2.82;92.64
75192;BME280;63771;52.580;9.734;2022-12-07T09:29:59;100961.41;;;2.76;92.35
75192;BME280;63771;52.580;9.734;2022-12-07T09:32:24;100946.47;;;2.71;92.24
75192;BME280;63771;52.580;9.734;2022-12-07T09:34:50;100944.34;;;2.67;92.34
75192;BME280;63771;52.580;9.734;2022-12-07T09:37:15;100945.78;;;2.65;92.30
75192;BME280;63771;52.580;9.734;2022-12-07T09:39:41;100943.78;;;2.69;92.85
75192;BME280;63771;52.580;9.734;2022-12-07T09:42:07;100941.44;;;2.71;92.76
75192;BME280;63771;52.580;9.734;2022-12-07T09:44:33;100937.66;;;2.74;92.38
75192;BME280;63771;52.580;9.734;2022-12-07T09:47:00;100936.78;;;2.74;92.38
75192;BME280;63771;52.580;9.734;2022-12-07T09:49:28;100946.13;;;2.82;92.47
75192;BME280;63771;52.580;9.734;2022-12-07T09:52:16;100937.66;;;2.88;92.68
75192;BME280;63771;52.580;9.734;2022-12-07T09:54:46;100938.50;;;2.96;92.76
75192;BME280;63771;52.580;9.734;2022-12-07T09:57:12;100937.63;;;3.03;92.19
75192;BME280;63771;52.580;9.734;2022-12-07T09:59:38;100943.53;;;3.10;91.79
75192;BME280;63771;52.580;9.734;2022-12-07T10:02:33;100934.88;;;3.16;91.40
75192;BME280;63771;52.580;9.734;2022-12-07T10:04:59;100942.06;;;3.20;90.93
75192;BME280;63771;52.580;9.734;2022-12-07T10:07:25;100937.91;;;3.20;90.85
75192;BME280;63771;52.580;9.734;2022-12-07T10:09:50;100944.22;;;3.24;90.66
75192;BME280;63771;52.580;9.734;2022-12-07T10:12:16;100929.78;;;3.23;90.73
75192;BME280;63771;52.580;9.734;2022-12-07T10:15:00;100928.69;;;3.28;91.44
75192;BME280;63771;52.580;9.734;2022-12-07T10:17:39;100927.56;;;3.33;90.81
75192;BME280;63771;52.580;9.734;2022-12-07T10:22:38;100929.91;;;3.38;90.85
75192;BME280;63771;52.580;9.734;2022-12-07T10:25:20;100929.00;;;3.38;90.62
75192;BME280;63771;52.580;9.734;2022-12-07T10:28:18;100933.66;;;3.42;90.84
75192;BME280;63771;52.580;9.734;2022-12-07T10:31:02;100929.00;;;3.45;90.94
75192;BME280;63771;52.580;9.734;2022-12-07T10:33:30;100925.38;;;3.50;90.81
75192;BME280;63771;52.580;9.734;2022-12-07T10:35:56;100923.00;;;3.52;90.11
75192;BME280;63771;52.580;9.734;2022-12-07T10:38:25;100922.78;;;3.57;89.91
75192;BME280;63771;52.580;9.734;2022-12-07T10:41:05;100921.16;;;3.58;90.43
75192;BME280;63771;52.580;9.734;2022-12-07T10:43:31;100923.47;;;3.63;90.43
75192;BME280;63771;52.580;9.734;2022-12-07T10:51:45;100920.78;;;3.62;89.12
75192;BME280;63771;52.580;9.734;2022-12-07T11:00:06;100911.38;;;3.68;89.36
75192;BME280;63771;52.580;9.734;2022-12-07T11:02:42;100902.53;;;3.72;89.21
75192;BME280;63771;52.580;9.734;2022-12-07T11:05:27;100906.50;;;3.70;88.71
75192;BME280;63771;52.580;9.734;2022-12-07T11:08:05;100906.50;;;3.70;87.50
75192;BME280;63771;52.580;9.734;2022-12-07T11:13:28;100912.78;;;3.73;87.31
75192;BME280;63771;52.580;9.734;2022-12-07T11:24:15;100910.22;;;3.50;87.45
75192;BME280;63771;52.580;9.734;2022-12-07T11:29:34;100902.16;;;3.38;88.30
75192;BME280;63771;52.580;9.734;2022-12-07T11:32:16;100895.91;;;3.35;88.01
75192;BME280;63771;52.580;9.734;2022-12-07T11:37:32;100898.41;;;3.35;88.24
75192;BME280;63771;52.580;9.734;2022-12-07T11:42:53;100896.94;;;3.37;88.75
75192;BME280;63771;52.580;9.734;2022-12-07T11:45:29;100903.25;;;3.40;88.63
75192;BME280;63771;52.580;9.734;2022-12-07T11:48:05;100901.94;;;3.44;88.71
75192;BME280;63771;52.580;9.734;2022-12-07T11:50:41;100896.56;;;3.41;88.55
75192;BME280;63771;52.580;9.734;2022-12-07T12:03:54;100886.22;;;3.54;88.91
75192;BME280;63771;52.580;9.734;2022-12-07T12:06:22;100871.28;;;3.55;88.68
75192;BME280;63771;52.580;9.734;2022-12-07T12:08:55;100868.25;;;3.51;88.65
75192;BME280;63771;52.580;9.734;2022-12-07T12:17:01;100865.50;;;3.56;88.51
75192;BME280;63771;52.580;9.734;2022-12-07T12:19:38;100859.59;;;3.49;88.51
75192;BME280;63771;52.580;9.734;2022-12-07T12:22:17;100856.84;;;3.54;88.91
75192;BME280;63771;52.580;9.734;2022-12-07T12:24:45;100857.59;;;3.53;88.92
75192;BME280;63771;52.580;9.734;2022-12-07T12:27:24;100854.69;;;3.57;89.13
75192;BME280;63771;52.580;9.734;2022-12-07T12:29:54;100850.38;;;3.56;89.20
75192;BME280;63771;52.580;9.734;2022-12-07T12:32:22;100843.53;;;3.55;89.36
75192;BME280;63771;52.580;9.734;2022-12-07T12:35:26;100850.69;;;3.59;89.16
75192;BME280;63771;52.580;9.734;2022-12-07T12:37:54;100840.06;;;3.62;89.43
75192;BME280;63771;52.580;9.734;2022-12-07T12:42:54;100838.22;;;3.68;88.84
75192;BME280;63771;52.580;9.734;2022-12-07T12:45:22;100836.94;;;3.72;89.04
75192;BME280;63771;52.580;9.734;2022-12-07T12:53:19;100825.81;;;3.85;88.37
75192;BME280;63771;52.580;9.734;2022-12-07T12:56:07;100837.81;;;3.95;88.39
75192;BME280;63771;52.580;9.734;2022-12-07T12:58:39;100827.88;;;3.97;87.99
75192;BME280;63771;52.580;9.734;2022-12-07T13:03:56;100824.22;;;4.02;87.84
75192;BME280;63771;52.580;9.734;2022-12-07T13:08:52;100813.59;;;4.04;86.60
75192;BME280;63771;52.580;9.734;2022-12-07T13:11:30;100816.50;;;4.00;86.27
75192;BME280;63771;52.580;9.734;2022-12-07T13:16:59;100820.13;;;4.02;86.40
75192;BME280;63771;52.580;9.734;2022-12-07T13:19:56;100810.56;;;4.00;86.89
75192;BME280;63771;52.580;9.734;2022-12-07T13:25:19;100807.88;;;3.98;86.22
75192;BME280;63771;52.580;9.734;2022-12-07T13:27:57;100797.94;;;4.00;86.73
75192;BME280;63771;52.580;9.734;2022-12-07T13:30:23;100803.38;;;3.96;86.52
75192;BME280;63771;52.580;9.734;2022-12-07T13:32:56;100796.03;;;3.90;86.80
75192;BME280;63771;52.580;9.734;2022-12-07T13:35:30;100808.66;;;3.90;86.49
75192;BME280;63771;52.580;9.734;2022-12-07T13:37:56;100796.44;;;3.86;86.82
75192;BME280;63771;52.580;9.734;2022-12-07T13:40:23;100801.81;;;3.89;86.66
75192;BME280;63771;52.580;9.734;2022-12-07T13:42:57;100797.66;;;3.89;86.67
75192;BME280;63771;52.580;9.734;2022-12-07T13:45:26;100801.47;;;3.86;86.63
75192;BME280;63771;52.580;9.734;2022-12-07T13:51:27;100791.06;;;3.83;86.24
75192;BME280;63771;52.580;9.734;2022-12-07T13:54:01;100786.03;;;3.83;86.49
75192;BME280;63771;52.580;9.734;2022-12-07T13:56:34;100789.31;;;3.75;85.89
75192;BME280;63771;52.580;9.734;2022-12-07T13:59:00;100790.06;;;3.74;86.33
75192;BME280;63771;52.580;9.734;2022-12-07T14:01:25;100790.78;;;3.73;86.47
75192;BME280;63771;52.580;9.734;2022-12-07T14:03:51;100792.06;;;3.69;86.94
75192;BME280;63771;52.580;9.734;2022-12-07T14:06:20;100810.25;;;3.74;87.01
75192;BME280;63771;52.580;9.734;2022-12-07T14:08:47;100798.59;;;3.67;87.06
75192;BME280;63771;52.580;9.734;2022-12-07T14:11:16;100806.00;;;3.65;87.58
75192;BME280;63771;52.580;9.734;2022-12-07T14:16:33;100808.16;;;3.62;87.85
75192;BME280;63771;52.580;9.734;2022-12-07T14:19:02;100800.94;;;3.65;87.99
75192;BME280;63771;52.580;9.734;2022-12-07T14:21:29;100802.56;;;3.65;88.37
75192;BME280;63771;52.580;9.734;2022-12-07T14:24:17;100799.47;;;3.67;88.09
75192;BME280;63771;52.580;9.734;2022-12-07T14:26:48;100796.22;;;3.69;88.14
75192;BME280;63771;52.580;9.734;2022-12-07T14:31:52;100796.22;;;3.69;88.26
75192;BME280;63771;52.580;9.734;2022-12-07T14:34:19;100800.38;;;3.68;88.44
75192;BME280;63771;52.580;9.734;2022-12-07T14:36:45;100794.28;;;3.66;88.67
75192;BME280;63771;52.580;9.734;2022-12-07T14:39:10;100806.00;;;3.65;88.68
75192;BME280;63771;52.580;9.734;2022-12-07T14:41:35;100829.41;;;3.64;89.18
75192;BME280;63771;52.580;9.734;2022-12-07T14:44:17;100841.19;;;3.80;85.79
75192;BME280;63771;52.580;9.734;2022-12-07T14:46:43;100840.06;;;3.62;83.53
75192;BME280;63771;52.580;9.734;2022-12-07T14:49:08;100843.03;;;3.21;83.72
75192;BME280;63771;52.580;9.734;2022-12-07T14:51:36;100848.50;;;2.51;85.57
75192;BME280;63771;52.580;9.734;2022-12-07T14:54:04;100851.44;;;2.25;86.58
75192;BME280;63771;52.580;9.734;2022-12-07T14:56:30;100843.72;;;1.95;87.42
75192;BME280;63771;52.580;9.734;2022-12-07T14:58:55;100829.31;;;1.66;88.21